Terminal Aerodrome Forecast
Issued by NWS Blacksburg, VA

Current Version | Previous Version | Text Only | Print | Product List | Glossary Off
Versions: 1 2 3 4 5 6 7 8 9 10 11 12 13 14 15 16 17 18 19 20 21 22 23 24 25 26 27 28 29 30 31 32 33 34 35 36 37 38

000
FTUS41 KRNK 260955 AAA
TAFBLF
TAF AMD
KBLF 260955Z 2610/2706 03007KT 1/4SM -SHRA FG VV002
     FM261300 33006KT 3SM -SHRA OVC004
     FM261500 32008KT P6SM OVC007
     FM261700 32008KT P6SM BKN012
     FM270100 30007KT 6SM BR SCT015
     FM270400 31006KT 4SM BR OVC003=

USA.gov is the U.S. government's official web portal to all federal, state and local government web resources and services.